Time;durP1;ratioP1;P1;durP2;ratioP2;P2;SDS_P1;SDS_P2;PMS_P1;PMS_P2;Temp;Humidity;BMP_temperature;BMP_pressure;BME280_temperature;BME280_humidity;BME280_pressure;Samples;Min_cycle;Max_cycle;Signal;HPM_P1;HPM_P2
2023/05/30 00:00:32;;;;;;;11.85;2.83;;;;;;;11.65;100.00;102700.63;4960022;28;20054;-67
2023/05/30 00:02:58;;;;;;;9.63;2.33;;;;;;;11.78;100.00;102685.59;4957049;28;20545;-66
2023/05/30 00:05:26;;;;;;;7.18;1.67;;;;;;;11.90;100.00;102688.13;4957338;28;20050;-66
2023/05/30 00:07:52;;;;;;;6.68;2.05;;;;;;;11.88;100.00;102688.97;4972469;28;20055;-66
2023/05/30 00:10:19;;;;;;;14.23;2.70;;;;;;;11.86;100.00;102701.25;4961329;28;20130;-66
2023/05/30 00:12:46;;;;;;;10.75;2.40;;;;;;;11.59;100.00;102682.31;4940466;28;20382;-66
2023/05/30 00:15:16;;;;;;;7.55;2.08;;;;;;;11.58;100.00;102684.06;4957689;28;20059;-66
2023/05/30 00:17:43;;;;;;;8.65;2.60;;;;;;;11.47;100.00;102685.06;4969764;28;20051;-66
2023/05/30 00:20:10;;;;;;;9.70;2.45;;;;;;;11.41;100.00;102691.25;4965766;28;20055;-66
2023/05/30 00:22:40;;;;;;;6.38;1.90;;;;;;;11.32;100.00;102650.25;4968015;28;20338;-66
2023/05/30 00:25:09;;;;;;;9.63;2.58;;;;;;;11.52;100.00;102673.63;4965720;28;20051;-66
2023/05/30 00:27:36;;;;;;;6.82;2.30;;;;;;;11.42;100.00;102687.75;4967647;28;20058;-66
2023/05/30 00:30:03;;;;;;;7.38;2.40;;;;;;;11.27;100.00;102691.38;4972390;28;20493;-66
2023/05/30 00:32:30;;;;;;;6.65;2.03;;;;;;;11.26;100.00;102692.28;4966510;28;20051;-66
2023/05/30 00:34:57;;;;;;;9.10;2.63;;;;;;;11.45;100.00;102682.44;4956661;28;20079;-66
2023/05/30 00:37:23;;;;;;;9.73;2.50;;;;;;;11.40;100.00;102668.50;4953542;29;20143;-66
2023/05/30 00:39:50;;;;;;;8.43;2.67;;;;;;;11.43;100.00;102683.38;4968619;28;20412;-66
2023/05/30 00:42:17;;;;;;;10.38;2.92;;;;;;;11.32;100.00;102697.44;4959492;28;20378;-66
2023/05/30 00:44:44;;;;;;;6.13;2.20;;;;;;;11.43;100.00;102691.25;4970189;28;20113;-66
2023/05/30 00:47:12;;;;;;;6.95;2.00;;;;;;;11.54;100.00;102687.63;4954904;28;20055;-66
2023/05/30 00:49:40;;;;;;;12.68;2.90;;;;;;;11.57;100.00;102687.56;4956247;28;20504;-66
2023/05/30 00:52:08;;;;;;;12.20;3.28;;;;;;;11.64;100.00;102684.91;4967923;28;20050;-66
2023/05/30 00:54:36;;;;;;;9.88;3.25;;;;;;;11.71;100.00;102702.31;4966341;28;20259;-66
2023/05/30 00:57:03;;;;;;;8.32;2.60;;;;;;;11.78;100.00;102696.09;4957371;28;20055;-66
2023/05/30 00:59:30;;;;;;;8.23;2.60;;;;;;;11.86;100.00;102690.75;4960113;28;20054;-66
2023/05/30 01:01:57;;;;;;;6.68;2.00;;;;;;;11.90;100.00;102690.75;4963954;28;20055;-66
2023/05/30 01:04:24;;;;;;;8.80;2.25;;;;;;;11.81;100.00;102688.22;4969060;28;20126;-66
2023/05/30 01:06:51;;;;;;;8.25;2.35;;;;;;;11.77;100.00;102691.72;4954011;28;20138;-66
2023/05/30 01:09:18;;;;;;;8.20;2.05;;;;;;;11.86;100.00;102690.75;4958585;28;20475;-66
2023/05/30 01:11:54;;;;;;;11.55;2.42;;;;;;;11.89;100.00;102694.22;4956089;28;20126;-66
2023/05/30 01:14:51;;;;;;;8.05;2.42;;;;;;;11.92;100.00;102696.00;4953281;28;20051;-66
2023/05/30 01:17:38;;;;;;;8.18;2.53;;;;;;;11.84;100.00;102703.03;4963246;28;20046;-66
2023/05/30 01:20:18;;;;;;;10.02;2.67;;;;;;;11.82;100.00;102700.44;4941214;29;20544;-66
2023/05/30 01:23:02;;;;;;;8.98;2.60;;;;;;;11.85;100.00;102700.41;4952542;29;20548;-66
2023/05/30 01:25:38;;;;;;;9.35;2.63;;;;;;;11.73;100.00;102696.16;4952212;28;20610;-66
2023/05/30 01:28:12;;;;;;;7.10;2.28;;;;;;;11.77;100.00;102691.72;4946320;28;20073;-66
2023/05/30 01:30:45;;;;;;;8.35;2.63;;;;;;;11.74;100.00;102692.66;4953067;28;20178;-66
2023/05/30 01:33:17;;;;;;;11.10;3.83;;;;;;;11.76;100.00;102690.88;4951964;28;20061;-66
2023/05/30 01:35:44;;;;;;;7.68;2.47;;;;;;;11.79;100.00;102700.44;4952322;28;20105;-66
2023/05/30 01:38:12;;;;;;;6.78;1.98;;;;;;;11.81;100.00;102697.81;4952749;29;20134;-66
2023/05/30 01:40:40;;;;;;;13.45;3.60;;;;;;;11.81;100.00;102674.19;4951960;28;20069;-66
2023/05/30 01:43:13;;;;;;;7.65;2.25;;;;;;;11.98;100.00;102700.28;4952281;29;20478;-66
2023/05/30 01:45:47;;;;;;;8.63;2.22;;;;;;;11.80;100.00;102688.22;4951855;28;20805;-66
2023/05/30 01:48:46;;;;;;;8.25;2.28;;;;;;;12.21;100.00;102710.50;4952019;29;20063;-66
2023/05/30 01:51:20;;;;;;;9.00;2.28;;;;;;;12.16;100.00;102694.78;4936879;29;20485;-66
2023/05/30 01:53:52;;;;;;;11.68;3.22;;;;;;;12.08;100.00;102696.66;4951822;29;20059;-66
2023/05/30 01:56:21;;;;;;;9.57;2.65;;;;;;;12.07;100.00;102708.91;4951522;29;20039;-66
2023/05/30 01:58:51;;;;;;;15.05;2.92;;;;;;;12.09;100.00;102706.25;4950745;28;20771;-67
2023/05/30 02:01:20;;;;;;;9.15;2.45;;;;;;;12.11;100.00;102705.38;4950901;29;20051;-66
2023/05/30 02:03:47;;;;;;;8.05;2.53;;;;;;;12.18;100.00;102702.66;4952052;28;20490;-67
2023/05/30 02:06:13;;;;;;;8.93;2.28;;;;;;;12.21;100.00;102703.47;4951266;28;20075;-66
2023/05/30 02:08:40;;;;;;;9.45;2.60;;;;;;;12.17;100.00;102704.41;4951878;28;20458;-66
2023/05/30 02:11:07;;;;;;;7.57;2.88;;;;;;;12.08;100.00;102715.91;4951290;28;20055;-66
2023/05/30 02:13:36;;;;;;;8.85;2.25;;;;;;;12.09;100.00;102714.13;4952200;28;20258;-67
2023/05/30 02:16:03;;;;;;;10.05;2.90;;;;;;;12.08;100.00;102713.28;4950446;28;20055;-66
2023/05/30 02:18:31;;;;;;;11.32;3.58;;;;;;;12.00;100.00;102711.63;4952128;28;20053;-66
2023/05/30 02:20:58;;;;;;;14.80;3.75;;;;;;;12.05;100.00;102702.81;4935045;29;20090;-66
2023/05/30 02:23:25;;;;;;;11.15;3.05;;;;;;;12.05;100.00;102701.94;4935482;28;20059;-66
2023/05/30 02:25:52;;;;;;;12.60;3.30;;;;;;;11.99;100.00;102728.25;4951637;29;20077;-66
2023/05/30 02:28:18;;;;;;;8.55;2.83;;;;;;;12.03;100.00;102722.97;4952329;28;20637;-66
2023/05/30 02:30:45;;;;;;;8.80;3.00;;;;;;;12.21;100.00;102724.50;4951222;29;20133;-67
2023/05/30 02:33:12;;;;;;;12.93;3.38;;;;;;;11.91;100.00;102702.09;4961935;28;20133;-67
2023/05/30 02:35:39;;;;;;;12.18;3.10;;;;;;;11.90;100.00;102718.72;4951128;29;20054;-67
2023/05/30 02:38:05;;;;;;;7.72;2.67;;;;;;;11.94;100.00;102723.09;4942956;29;20047;-67
2023/05/30 02:40:32;;;;;;;9.52;3.25;;;;;;;11.98;100.00;102729.16;4948239;28;20134;-67
2023/05/30 02:42:59;;;;;;;12.70;3.65;;;;;;;12.08;100.00;102712.41;4952496;29;20537;-67
2023/05/30 02:45:35;;;;;;;11.02;3.42;;;;;;;12.11;100.00;102715.88;4950685;28;20469;-66
2023/05/30 02:48:02;;;;;;;10.02;3.30;;;;;;;12.17;100.00;102716.69;4951947;29;20058;-64
2023/05/30 02:50:28;;;;;;;9.05;2.50;;;;;;;12.24;100.00;102718.34;4951964;28;20044;-64
2023/05/30 02:52:55;;;;;;;8.45;2.50;;;;;;;12.35;100.00;102726.94;4952431;28;20053;-65
2023/05/30 02:55:22;;;;;;;10.63;2.42;;;;;;;12.41;100.00;102711.13;4955979;28;20066;-66
2023/05/30 02:57:49;;;;;;;9.98;2.63;;;;;;;12.47;100.00;102721.53;4951820;29;20039;-66
2023/05/30 03:00:16;;;;;;;7.55;2.65;;;;;;;12.43;100.00;102717.22;4951822;29;20394;-66
2023/05/30 03:02:43;;;;;;;9.65;2.65;;;;;;;12.57;100.00;102724.03;4951404;28;20047;-66
2023/05/30 03:05:10;;;;;;;9.85;3.08;;;;;;;12.54;100.00;102731.06;4951093;29;20047;-66
2023/05/30 03:07:37;;;;;;;8.23;2.72;;;;;;;12.63;100.00;102729.19;4950872;28;20138;-66
2023/05/30 03:10:04;;;;;;;9.73;2.58;;;;;;;12.48;100.00;102725.91;4952002;29;20087;-66
2023/05/30 03:12:31;;;;;;;8.85;2.75;;;;;;;12.58;100.00;102733.66;4951933;29;20054;-66
2023/05/30 03:14:58;;;;;;;9.18;2.15;;;;;;;12.44;100.00;102729.44;4936709;29;20427;-66
2023/05/30 03:17:25;;;;;;;9.90;3.15;;;;;;;12.57;100.00;102737.16;4951013;28;20047;-66
2023/05/30 03:19:51;;;;;;;12.15;4.00;;;;;;;12.58;100.00;102726.63;4951859;28;20482;-66
2023/05/30 03:22:18;;;;;;;10.13;3.92;;;;;;;12.34;100.00;102747.09;4954485;28;20143;-66
2023/05/30 03:24:45;;;;;;;9.75;2.90;;;;;;;12.19;100.00;102751.69;4955199;29;20410;-66
2023/05/30 03:27:11;;;;;;;10.82;2.67;;;;;;;12.26;100.00;102748.94;4954744;28;20053;-66
2023/05/30 03:29:38;;;;;;;8.20;2.80;;;;;;;12.46;100.00;102738.16;4954120;28;20091;-66
2023/05/30 03:32:06;;;;;;;7.03;2.40;;;;;;;12.33;100.00;102732.22;4953919;28;20094;-66
2023/05/30 03:34:33;;;;;;;8.73;2.63;;;;;;;12.48;100.00;102752.19;4953789;29;20098;-66
2023/05/30 03:37:00;;;;;;;7.55;2.70;;;;;;;12.52;100.00;102751.22;4953723;28;20051;-66
2023/05/30 03:39:28;;;;;;;8.27;2.45;;;;;;;12.54;100.00;102752.06;4955024;28;20054;-66
2023/05/30 03:41:54;;;;;;;7.18;2.20;;;;;;;12.51;100.00;102749.47;4954804;29;20094;-66
2023/05/30 03:44:21;;;;;;;8.93;2.28;;;;;;;12.50;100.00;102750.41;4954891;28;20529;-66
2023/05/30 03:46:48;;;;;;;5.97;1.90;;;;;;;12.51;100.00;102748.63;4953834;28;20106;-66
2023/05/30 03:49:15;;;;;;;7.38;2.38;;;;;;;12.34;100.00;102720.84;4954503;29;20043;-66
2023/05/30 03:51:41;;;;;;;9.13;3.00;;;;;;;12.58;100.00;102760.78;4954960;28;20057;-66
2023/05/30 03:54:08;;;;;;;8.40;2.80;;;;;;;12.53;100.00;102763.47;4954755;28;20375;-66
2023/05/30 03:56:35;;;;;;;8.15;2.58;;;;;;;12.47;100.00;102729.41;4953004;28;20043;-66
2023/05/30 03:59:02;;;;;;;9.48;2.30;;;;;;;12.75;100.00;102757.03;4954332;29;20053;-66
2023/05/30 04:01:30;;;;;;;10.82;3.13;;;;;;;12.43;100.00;102763.59;4954970;28;20055;-66
2023/05/30 04:03:57;;;;;;;9.00;3.08;;;;;;;12.28;100.00;102768.19;4957940;28;20142;-66
2023/05/30 04:06:24;;;;;;;8.02;2.63;;;;;;;12.09;100.00;102754.41;4953939;28;20110;-65
2023/05/30 04:08:51;;;;;;;8.20;2.60;;;;;;;12.20;100.00;102753.41;4954382;28;20391;-66
2023/05/30 04:11:18;;;;;;;8.15;2.60;;;;;;;12.54;100.00;102761.72;4954297;28;20504;-65
2023/05/30 04:13:45;;;;;;;7.00;2.22;;;;;;;12.61;100.00;102770.41;4954071;29;20413;-65
2023/05/30 04:16:11;;;;;;;9.75;2.80;;;;;;;12.40;100.00;102761.91;4952129;28;20055;-65
2023/05/30 04:18:43;;;;;;;9.63;2.95;;;;;;;12.42;100.00;102777.66;4953568;28;20047;-65
2023/05/30 04:21:14;;;;;;;7.90;2.30;;;;;;;12.61;100.00;102776.53;4954496;29;20476;-65
2023/05/30 04:23:41;;;;;;;7.82;2.28;;;;;;;12.64;100.00;102763.34;4956324;28;20051;-66
2023/05/30 04:26:09;;;;;;;9.70;2.85;;;;;;;12.60;100.00;102773.91;4946535;29;20137;-66
2023/05/30 04:28:39;;;;;;;8.77;2.80;;;;;;;12.37;100.00;102767.19;4952500;28;20134;-66
2023/05/30 04:31:06;;;;;;;7.55;2.22;;;;;;;12.39;100.00;102780.31;4936672;29;20063;-66
2023/05/30 04:33:48;;;;;;;6.90;2.60;;;;;;;12.40;100.00;102747.91;4955747;28;20059;-66
2023/05/30 04:36:18;;;;;;;9.80;2.38;;;;;;;12.60;100.00;102771.28;4952862;29;20071;-66
2023/05/30 04:38:48;;;;;;;7.18;2.15;;;;;;;12.73;100.00;102767.59;4953620;28;20159;-66
2023/05/30 04:41:24;;;;;;;8.00;2.47;;;;;;;12.75;100.00;102771.06;4953320;28;20055;-66
2023/05/30 04:43:54;;;;;;;11.05;2.75;;;;;;;12.64;100.00;102775.59;4962923;28;20130;-65
2023/05/30 04:46:24;;;;;;;10.07;2.92;;;;;;;12.59;100.00;102777.41;4951852;28;20051;-65
2023/05/30 04:48:53;;;;;;;7.88;2.20;;;;;;;12.82;100.00;102758.69;4953351;28;20429;-65
2023/05/30 04:51:21;;;;;;;9.35;2.60;;;;;;;12.85;100.00;102759.50;4953627;28;20667;-65
2023/05/30 04:53:51;;;;;;;6.63;2.13;;;;;;;12.90;100.00;102756.81;4953488;28;20146;-65
2023/05/30 04:56:22;;;;;;;8.90;2.40;;;;;;;12.97;100.00;102774.25;4955170;28;20046;-65
2023/05/30 04:58:51;;;;;;;6.32;2.20;;;;;;;13.02;100.00;102769.78;4952594;29;20134;-65
2023/05/30 05:01:18;;;;;;;10.05;3.00;;;;;;;13.11;100.00;102768.78;4952333;28;20161;-65
2023/05/30 05:03:45;;;;;;;10.65;2.85;;;;;;;12.98;100.00;102759.31;4956328;28;20489;-66
2023/05/30 05:06:13;;;;;;;7.80;2.70;;;;;;;13.02;100.00;102756.63;4950807;28;20469;-66
2023/05/30 05:08:40;;;;;;;9.13;2.65;;;;;;;13.03;100.00;102768.00;4953926;28;20353;-66
2023/05/30 05:11:07;;;;;;;9.27;2.78;;;;;;;12.85;100.00;102746.38;4953643;28;20055;-66
2023/05/30 05:13:35;;;;;;;9.68;2.90;;;;;;;13.09;100.00;102757.41;4960481;28;20055;-66
2023/05/30 05:16:04;;;;;;;8.93;3.38;;;;;;;13.15;100.00;102773.09;4951445;29;20598;-65
2023/05/30 05:18:31;;;;;;;11.63;2.97;;;;;;;13.13;100.00;102763.50;4964683;28;20082;-65
2023/05/30 05:20:58;;;;;;;8.52;2.40;;;;;;;13.11;100.00;102764.38;4952569;28;20054;-65
2023/05/30 05:23:28;;;;;;;8.02;2.30;;;;;;;13.17;100.00;102773.94;4954400;28;20057;-65
2023/05/30 05:25:56;;;;;;;7.75;2.30;;;;;;;13.09;100.00;102770.56;4954589;28;20057;-65
2023/05/30 05:28:23;;;;;;;9.20;2.75;;;;;;;12.79;100.00;102772.75;4957749;28;20134;-65
2023/05/30 05:30:50;;;;;;;8.07;2.50;;;;;;;12.80;100.00;102768.38;4956807;28;20055;-66
2023/05/30 05:33:17;;;;;;;8.65;2.90;;;;;;;12.93;100.00;102764.69;4953678;28;20051;-66
2023/05/30 05:35:48;;;;;;;8.43;2.65;;;;;;;13.08;100.00;102771.44;4951994;28;20133;-66
2023/05/30 05:38:16;;;;;;;8.35;2.40;;;;;;;13.29;100.00;102780.75;4959736;28;20062;-66
2023/05/30 05:40:43;;;;;;;11.90;2.92;;;;;;;13.15;100.00;102777.50;4952192;28;20466;-66
2023/05/30 05:43:10;;;;;;;8.40;2.60;;;;;;;13.35;100.00;102767.56;4962962;28;20050;-66
2023/05/30 05:45:36;;;;;;;9.73;2.80;;;;;;;13.30;100.00;102772.84;4956990;28;20043;-66
2023/05/30 05:48:04;;;;;;;8.43;2.67;;;;;;;13.37;100.00;102772.75;4951303;29;20079;-66
2023/05/30 05:50:31;;;;;;;17.77;3.55;;;;;;;13.42;100.00;102784.09;4950802;28;20058;-66
2023/05/30 05:52:58;;;;;;;8.68;2.83;;;;;;;13.38;100.00;102775.38;4951359;29;20482;-66
2023/05/30 05:55:24;;;;;;;7.55;2.20;;;;;;;13.47;100.00;102767.34;4950729;29;20065;-66
2023/05/30 05:57:52;;;;;;;7.10;2.28;;;;;;;13.58;100.00;102761.00;4963497;28;20130;-65
2023/05/30 06:00:22;;;;;;;7.75;2.80;;;;;;;13.48;100.00;102771.69;4954949;28;20110;-65
2023/05/30 06:02:49;;;;;;;9.98;3.20;;;;;;;13.60;100.00;102772.41;4955478;28;20213;-65
2023/05/30 06:05:16;;;;;;;8.00;2.70;;;;;;;13.53;100.00;102760.22;4951593;28;20043;-65
2023/05/30 06:07:43;;;;;;;9.25;3.03;;;;;;;13.51;100.00;102767.25;4958761;28;20043;-65
2023/05/30 06:10:10;;;;;;;11.57;3.05;;;;;;;13.67;100.00;102768.75;4960532;28;20426;-65
2023/05/30 06:12:37;;;;;;;8.65;2.38;;;;;;;13.95;100.00;102779.63;4961619;28;20113;-65
2023/05/30 06:15:06;;;;;;;10.98;2.85;;;;;;;13.81;100.00;102779.00;4960102;28;20075;-65
2023/05/30 06:17:32;;;;;;;8.32;2.25;;;;;;;13.96;100.00;102762.06;4952481;28;20155;-65
2023/05/30 06:19:59;;;;;;;9.27;2.90;;;;;;;13.81;100.00;102764.09;4962183;28;20051;-66
2023/05/30 06:22:26;;;;;;;12.02;3.45;;;;;;;14.04;100.00;102768.91;4951478;28;20051;-65
2023/05/30 06:24:53;;;;;;;8.88;2.78;;;;;;;14.04;100.00;102770.66;4951386;28;20057;-65
2023/05/30 06:27:19;;;;;;;13.13;3.83;;;;;;;13.60;100.00;102769.75;4957022;28;20429;-65
2023/05/30 06:29:46;;;;;;;8.57;3.17;;;;;;;14.02;100.00;102756.66;4963752;28;20054;-65
2023/05/30 06:32:13;;;;;;;15.30;4.60;;;;;;;13.79;100.00;102773.78;4958671;28;20085;-65
2023/05/30 06:34:45;;;;;;;14.30;5.40;;;;;;;13.46;100.00;102768.22;4953757;28;20417;-65
2023/05/30 06:37:15;;;;;;;12.85;4.45;;;;;;;13.44;100.00;102774.44;4956025;28;20050;-65
2023/05/30 06:39:42;;;;;;;10.25;3.33;;;;;;;14.12;100.00;102765.25;4956164;28;20061;-65
2023/05/30 06:42:11;;;;;;;8.38;3.13;;;;;;;14.52;100.00;102761.78;4961965;28;20050;-65
2023/05/30 06:44:38;;;;;;;8.70;3.10;;;;;;;14.76;100.00;102784.13;4956561;28;20054;-65
2023/05/30 06:47:05;;;;;;;7.97;3.30;;;;;;;14.41;100.00;102789.25;4961337;28;20047;-66
2023/05/30 06:49:32;;;;;;;10.73;3.40;;;;;;;14.34;100.00;102769.19;4934108;29;20050;-66
2023/05/30 06:51:59;;;;;;;10.60;4.03;;;;;;;14.34;100.00;102758.66;4958190;28;20055;-66
2023/05/30 06:54:26;;;;;;;14.70;4.07;;;;;;;14.75;100.00;102759.53;4956635;28;20074;-66
2023/05/30 06:56:53;;;;;;;10.75;3.80;;;;;;;14.85;100.00;102772.50;4940424;29;20497;-66
2023/05/30 06:59:19;;;;;;;11.23;3.15;;;;;;;14.78;100.00;102784.97;4961800;28;20513;-65
2023/05/30 07:01:46;;;;;;;8.77;2.95;;;;;;;14.81;100.00;102761.16;4967314;28;20051;-65
2023/05/30 07:04:13;;;;;;;8.50;2.78;;;;;;;14.72;100.00;102767.50;4958483;28;20057;-65
2023/05/30 07:06:40;;;;;;;8.93;3.20;;;;;;;14.85;100.00;102770.72;4953866;28;20473;-65
2023/05/30 07:09:07;;;;;;;12.65;3.70;;;;;;;14.39;100.00;102769.09;4955677;28;20043;-65
2023/05/30 07:11:34;;;;;;;8.25;2.58;;;;;;;14.56;100.00;102777.50;4971409;28;20050;-66
2023/05/30 07:14:00;;;;;;;11.13;3.85;;;;;;;14.63;100.00;102777.41;4962535;28;20085;-66
2023/05/30 07:16:27;;;;;;;10.77;3.70;;;;;;;14.66;100.00;102766.78;4953276;29;20055;-66
2023/05/30 07:18:54;;;;;;;13.90;4.18;;;;;;;14.23;100.00;102766.75;4954524;28;20047;-66
2023/05/30 07:21:38;;;;;;;;;;;;;;;14.35;100.00;102780.59;4955646;28;20741;-66
2023/05/30 07:24:05;;;;;;;10.60;3.13;;;;;;;14.67;100.00;102777.28;4955073;28;20324;-66
2023/05/30 07:26:32;;;;;;;13.02;3.78;;;;;;;14.46;100.00;102767.19;4954013;28;20078;-66
2023/05/30 07:28:58;;;;;;;16.52;4.80;;;;;;;14.24;100.00;102768.50;4954251;28;20134;-66
2023/05/30 07:31:25;;;;;;;9.50;3.33;;;;;;;14.42;100.00;102779.56;4954799;29;20055;-66
2023/05/30 07:33:52;;;;;;;8.80;3.00;;;;;;;14.82;100.00;102768.19;4954677;28;20466;-66
2023/05/30 07:36:19;;;;;;;12.73;4.35;;;;;;;14.43;100.00;102750.56;4963324;28;20820;-66
2023/05/30 07:38:46;;;;;;;9.85;3.20;;;;;;;14.89;100.00;102751.31;4958596;28;20164;-66
2023/05/30 07:41:12;;;;;;;11.52;4.43;;;;;;;14.79;100.00;102760.34;4954069;28;20051;-66
2023/05/30 07:43:39;;;;;;;10.63;3.17;;;;;;;15.14;100.00;102759.50;4954041;28;20058;-66
2023/05/30 07:46:06;;;;;;;13.98;4.40;;;;;;;15.17;100.00;102750.63;4962640;28;20061;-65
2023/05/30 07:48:33;;;;;;;12.18;4.10;;;;;;;15.05;100.00;102735.09;4971790;28;20097;-65
2023/05/30 07:50:59;;;;;;;12.73;4.60;;;;;;;15.34;100.00;102753.72;4971337;28;20093;-66
2023/05/30 07:53:26;;;;;;;11.30;3.58;;;;;;;15.25;100.00;102711.72;4971058;28;20439;-66
2023/05/30 07:55:53;;;;;;;10.90;3.70;;;;;;;15.77;100.00;102757.03;4959849;28;20047;-66
2023/05/30 07:58:20;;;;;;;11.35;3.67;;;;;;;15.58;100.00;102738.13;4958301;28;20450;-66
2023/05/30 08:00:46;;;;;;;11.07;3.08;;;;;;;16.32;100.00;102746.66;4960773;28;20055;-66
2023/05/30 08:03:13;;;;;;;15.27;4.38;;;;;;;16.26;100.00;102747.69;4958932;28;20058;-66
2023/05/30 08:05:40;;;;;;;9.40;3.13;;;;;;;16.46;100.00;102735.66;4953758;28;20047;-66
2023/05/30 08:08:07;;;;;;;10.98;2.90;;;;;;;17.08;100.00;102734.59;4953051;28;20047;-66
2023/05/30 08:10:34;;;;;;;6.88;2.80;;;;;;;17.33;100.00;102734.63;4970525;28;20141;-66
2023/05/30 08:13:01;;;;;;;13.80;3.78;;;;;;;16.52;100.00;102733.72;4967854;28;20051;-66
2023/05/30 08:15:28;;;;;;;10.20;3.10;;;;;;;17.36;100.00;102701.91;4962890;28;20138;-66
2023/05/30 08:17:56;;;;;;;10.50;3.20;;;;;;;17.82;100.00;102726.75;4968646;28;20238;-66
2023/05/30 08:20:24;;;;;;;14.82;3.78;;;;;;;16.84;100.00;102723.91;4955018;28;20055;-66
2023/05/30 08:22:51;;;;;;;13.57;3.10;;;;;;;16.62;100.00;102725.47;4954035;28;20066;-66
2023/05/30 08:25:32;;;;;;;9.48;3.17;;;;;;;17.18;100.00;102724.59;4954809;28;20186;-66
2023/05/30 08:27:59;;;;;;;11.07;2.65;;;;;;;17.64;100.00;102717.69;4960473;28;20053;-66
2023/05/30 08:30:27;;;;;;;12.13;3.10;;;;;;;17.56;100.00;102736.47;4970749;28;20130;-66
2023/05/30 08:32:54;;;;;;;10.15;3.33;;;;;;;17.56;100.00;102736.47;4969027;28;20066;-66
2023/05/30 08:35:21;;;;;;;12.35;3.40;;;;;;;17.22;100.00;102724.41;4955752;28;20508;-66
2023/05/30 08:37:48;;;;;;;12.63;3.95;;;;;;;17.38;100.00;102727.41;4941415;29;20040;-66
2023/05/30 08:40:15;;;;;;;12.05;3.50;;;;;;;17.79;100.00;102734.78;4958285;28;20043;-66
2023/05/30 08:42:42;;;;;;;10.07;2.75;;;;;;;17.72;100.00;102725.34;4957730;28;20043;-66
2023/05/30 08:45:10;;;;;;;7.90;2.30;;;;;;;17.97;100.00;102723.56;4954223;28;20150;-66
2023/05/30 08:47:37;;;;;;;11.50;4.00;;;;;;;17.79;100.00;102716.25;4955682;28;20470;-66
2023/05/30 08:50:07;;;;;;;9.82;3.17;;;;;;;17.69;100.00;102731.63;4957262;28;20051;-66
2023/05/30 08:52:35;;;;;;;8.75;3.22;;;;;;;17.88;100.00;102723.03;4971667;28;20391;-68
2023/05/30 08:55:10;;;;;;;8.90;2.72;;;;;;;17.78;100.00;102718.03;4963344;28;20533;-68
2023/05/30 08:57:47;;;;;;;13.40;3.83;;;;;;;17.34;100.00;102717.84;4953542;28;20050;-68
2023/05/30 09:00:15;;;;;;;13.02;3.80;;;;;;;16.94;100.00;102724.47;4945631;29;20051;-68
2023/05/30 09:02:43;;;;;;;12.68;3.28;;;;;;;16.93;100.00;102721.88;4955221;28;20050;-68
2023/05/30 09:05:14;;;;;;;10.25;3.25;;;;;;;16.62;100.00;102714.91;4954175;28;20079;-69
2023/05/30 09:07:43;;;;;;;8.25;2.83;;;;;;;17.03;100.00;102724.19;4952236;28;20485;-68
2023/05/30 09:10:11;;;;;;;12.20;3.70;;;;;;;16.47;100.00;102740.06;4958270;28;20057;-68
2023/05/30 09:12:40;;;;;;;13.07;3.78;;;;;;;16.44;100.00;102737.50;4964843;28;20130;-68
2023/05/30 09:15:08;;;;;;;10.50;3.53;;;;;;;16.38;100.00;102725.34;4961308;28;20061;-68
2023/05/30 09:17:34;;;;;;;9.48;2.95;;;;;;;17.36;100.00;102726.59;4961204;28;20050;-68
2023/05/30 09:20:01;;;;;;;10.60;3.45;;;;;;;17.14;100.00;102728.22;4965006;28;20077;-68
2023/05/30 09:22:28;;;;;;;11.02;3.28;;;;;;;17.16;100.00;102731.72;4954425;28;20047;-68
2023/05/30 09:25:00;;;;;;;13.27;3.92;;;;;;;16.49;100.00;102749.66;4955752;28;20051;-68
2023/05/30 09:27:29;;;;;;;11.23;3.45;;;;;;;16.79;100.00;102746.97;4946482;28;20047;-68
2023/05/30 09:29:56;;;;;;;16.00;4.35;;;;;;;16.49;100.00;102747.00;4960679;28;20150;-68
2023/05/30 09:32:34;;;;;;;10.73;2.92;;;;;;;16.57;100.00;102730.91;4963055;28;20129;-68
2023/05/30 09:35:09;;;;;;;12.20;3.60;;;;;;;16.66;100.00;102748.25;4960580;28;20505;-68
2023/05/30 09:37:36;;;;;;;12.98;3.17;;;;;;;16.71;100.00;102751.63;4966449;28;20057;-68
2023/05/30 09:40:07;;;;;;;10.55;3.75;;;;;;;16.59;100.00;102752.00;4959530;28;20055;-68
2023/05/30 09:42:41;;;;;;;11.85;3.80;;;;;;;16.70;100.00;102742.84;4957222;28;20085;-68
2023/05/30 09:45:09;;;;;;;10.27;3.42;;;;;;;16.33;100.00;102741.31;4959567;28;20481;-68
2023/05/30 09:47:48;;;;;;;12.30;3.15;;;;;;;16.51;100.00;102758.41;4970589;28;20134;-68
2023/05/30 09:50:23;;;;;;;11.07;3.13;;;;;;;16.85;100.00;102741.50;4971848;28;20522;-68
2023/05/30 09:52:56;;;;;;;10.43;3.33;;;;;;;16.78;100.00;102755.81;4966167;28;20075;-68
2023/05/30 09:55:24;;;;;;;;;;;;;;;17.26;100.00;102755.19;4952206;29;20075;-68
2023/05/30 09:57:52;;;;;;;15.60;3.47;;;;;;;17.41;100.00;102759.06;4965303;28;19994;-68
2023/05/30 10:00:24;;;;;;;13.48;3.90;;;;;;;17.85;100.00;102742.53;4958378;28;20150;-68
2023/05/30 10:02:56;;;;;;;11.18;3.17;;;;;;;17.83;100.00;102758.50;4968102;28;20488;-68
2023/05/30 10:05:25;;;;;;;10.97;3.17;;;;;;;18.16;100.00;102752.03;4951897;29;20409;-68
2023/05/30 10:07:54;;;;;;;14.00;3.70;;;;;;;17.45;100.00;102760.69;4969143;28;20078;-68
2023/05/30 10:10:22;;;;;;;10.27;3.17;;;;;;;17.65;100.00;102756.47;4968010;28;20058;-68
2023/05/30 10:12:51;;;;;;;9.93;3.22;;;;;;;17.18;100.00;102741.31;4955374;28;20086;-69
2023/05/30 10:15:20;;;;;;;13.57;3.47;;;;;;;16.92;100.00;102738.69;4965136;28;20130;-69
2023/05/30 10:17:55;;;;;;;12.05;3.33;;;;;;;16.82;100.00;102744.25;4952374;28;20055;-69
2023/05/30 10:20:26;;;;;;;12.95;3.85;;;;;;;17.51;100.00;102740.22;4941243;29;20509;-68
2023/05/30 10:22:53;;;;;;;11.73;3.97;;;;;;;17.14;100.00;102737.06;4952261;28;20090;-69
2023/05/30 10:25:21;;;;;;;11.45;3.50;;;;;;;17.05;100.00;102742.63;4951903;28;20798;-69
2023/05/30 10:27:57;;;;;;;9.73;3.28;;;;;;;16.94;100.00;102742.13;4952176;28;20113;-69
2023/05/30 10:30:27;;;;;;;13.85;3.10;;;;;;;17.06;100.00;102742.59;4951038;28;20482;-69
2023/05/30 10:33:08;;;;;;;11.02;3.10;;;;;;;17.27;100.00;102738.34;4951928;28;20047;-68
2023/05/30 10:35:37;;;;;;;12.02;3.03;;;;;;;17.10;100.00;102727.47;4948964;28;20490;-69
2023/05/30 10:38:06;;;;;;;12.75;3.65;;;;;;;17.06;100.00;102721.41;4932583;29;20097;-69
2023/05/30 10:40:38;;;;;;;9.98;3.30;;;;;;;17.66;100.00;102737.03;4952107;28;20050;-69
2023/05/30 10:43:05;;;;;;;11.63;3.10;;;;;;;17.58;100.00;102739.06;4951107;29;20143;-68
2023/05/30 10:46:16;;;;;;;10.65;3.28;;;;;;;17.77;100.00;102740.16;4950851;29;20055;-69
2023/05/30 10:49:01;;;;;;;12.32;3.63;;;;;;;17.10;100.00;102716.88;4950526;28;20071;-69
2023/05/30 10:51:28;;;;;;;10.38;3.22;;;;;;;17.42;100.00;102731.69;4951580;29;20044;-69
2023/05/30 10:53:57;;;;;;;13.38;3.63;;;;;;;17.23;100.00;102738.53;4960367;28;20097;-69
2023/05/30 10:56:31;;;;;;;13.13;3.97;;;;;;;17.43;100.00;102738.69;4959832;28;20047;-69
2023/05/30 10:59:00;;;;;;;11.02;3.30;;;;;;;17.88;100.00;102742.44;4965536;28;20047;-69
2023/05/30 11:01:27;;;;;;;11.38;3.67;;;;;;;17.72;100.00;102743.88;4951354;28;20507;-69
2023/05/30 11:04:07;;;;;;;10.48;2.95;;;;;;;17.19;100.00;102727.19;4953980;28;20059;-69
2023/05/30 11:06:36;;;;;;;10.75;2.80;;;;;;;17.54;100.00;102740.13;4951924;28;20106;-69
2023/05/30 11:09:11;;;;;;;8.35;2.75;;;;;;;17.42;100.00;102737.00;4955063;28;20054;-69
2023/05/30 11:11:46;;;;;;;12.32;3.45;;;;;;;16.83;100.00;102737.16;4957593;28;20470;-69
2023/05/30 11:14:14;;;;;;;9.25;3.00;;;;;;;17.69;100.00;102713.09;4956618;28;20049;-69
2023/05/30 11:16:54;;;;;;;10.90;3.42;;;;;;;18.22;100.00;102727.94;4957229;28;20078;-69
2023/05/30 11:19:33;;;;;;;11.70;3.67;;;;;;;18.01;100.00;102729.63;4958927;28;20135;-69
2023/05/30 11:22:02;;;;;;;10.45;3.15;;;;;;;17.63;100.00;102726.53;4957297;28;20288;-69